createdAt,value
2017-05-23T00:00:19.747Z,4.34
2017-05-23T00:02:46.681Z,5.06
2017-05-23T00:05:13.644Z,5.08
2017-05-23T00:07:40.583Z,4.40
2017-05-23T00:10:07.515Z,4.64
2017-05-23T00:12:34.424Z,4.74
2017-05-23T00:15:01.394Z,4.46
2017-05-23T00:17:28.374Z,4.20
2017-05-23T00:19:55.338Z,5.24
2017-05-23T00:22:22.335Z,4.48
2017-05-23T00:24:49.279Z,4.36
2017-05-23T00:27:19.204Z,4.36
2017-05-23T00:29:46.129Z,5.20
2017-05-23T00:32:13.112Z,4.16
2017-05-23T00:34:42.524Z,4.68
2017-05-23T00:37:09.483Z,3.80
2017-05-23T00:39:36.428Z,4.72
2017-05-23T00:42:03.366Z,4.60
2017-05-23T00:44:29.878Z,4.40
2017-05-23T00:46:56.843Z,4.72
2017-05-23T00:49:23.774Z,5.12
2017-05-23T00:51:51.500Z,4.38
2017-05-23T00:54:18.450Z,4.32
2017-05-23T00:56:45.354Z,4.16
2017-05-23T00:59:11.902Z,4.42
2017-05-23T01:01:38.870Z,4.62
2017-05-23T01:04:06.609Z,4.54
2017-05-23T01:06:33.553Z,4.52
2017-05-23T01:09:00.720Z,4.54
2017-05-23T01:11:27.673Z,4.68
2017-05-23T01:13:54.577Z,4.56
2017-05-23T01:16:21.562Z,4.34
2017-05-23T01:18:49.921Z,4.52
2017-05-23T01:21:16.882Z,4.14
2017-05-23T01:23:43.864Z,5.58
2017-05-23T01:26:10.775Z,4.26
2017-05-23T01:28:38.595Z,5.16
2017-05-23T01:31:05.545Z,4.32
2017-05-23T01:33:32.494Z,4.60
2017-05-23T01:36:00.423Z,5.00
2017-05-23T01:38:29.432Z,4.78
2017-05-23T01:40:56.616Z,4.90
2017-05-23T01:43:23.553Z,4.68
2017-05-23T01:45:50.486Z,4.44
2017-05-23T01:48:17.411Z,4.50
2017-05-23T01:50:48.028Z,5.26
2017-05-23T01:53:14.981Z,4.90
2017-05-23T01:55:41.880Z,5.16
2017-05-23T01:58:08.874Z,5.58
2017-05-23T02:00:35.835Z,4.80
2017-05-23T02:03:02.718Z,5.04
2017-05-23T02:05:29.665Z,4.40
2017-05-23T02:07:56.660Z,5.08
2017-05-23T02:10:26.322Z,4.76
2017-05-23T02:12:53.227Z,5.00
2017-05-23T02:15:20.202Z,5.22
2017-05-23T02:17:48.939Z,5.58
2017-05-23T02:20:15.879Z,5.92
2017-05-23T02:22:42.825Z,5.72
2017-05-23T02:25:09.743Z,4.82
2017-05-23T02:27:36.676Z,5.88
2017-05-23T02:30:03.631Z,5.34
2017-05-23T02:32:30.577Z,5.72
2017-05-23T02:34:57.497Z,5.38
2017-05-23T02:37:24.423Z,5.80
2017-05-23T02:39:51.364Z,5.84
2017-05-23T02:42:18.260Z,5.52
2017-05-23T02:44:45.642Z,5.12
2017-05-23T02:47:12.546Z,5.60
2017-05-23T02:49:39.458Z,5.30
2017-05-23T02:52:08.060Z,5.64
2017-05-23T02:54:34.958Z,6.68
2017-05-23T02:57:01.856Z,6.56
2017-05-23T02:59:30.415Z,6.44
2017-05-23T03:01:57.346Z,5.84
2017-05-23T03:04:24.285Z,6.60
2017-05-23T03:06:51.220Z,6.00
2017-05-23T03:09:18.190Z,6.10
2017-05-23T03:11:45.139Z,6.44
2017-05-23T03:14:12.037Z,6.08
2017-05-23T03:16:41.208Z,5.60
2017-05-23T03:19:08.181Z,6.12
2017-05-23T03:21:35.096Z,5.80
2017-05-23T03:24:02.033Z,5.94
2017-05-23T03:26:28.971Z,6.04
2017-05-23T03:28:55.856Z,5.58
2017-05-23T03:31:22.761Z,6.02
2017-05-23T03:33:49.707Z,6.28
2017-05-23T03:36:16.643Z,6.42
2017-05-23T03:38:43.559Z,6.16
2017-05-23T03:41:10.482Z,6.28
2017-05-23T03:43:38.911Z,6.58
2017-05-23T03:46:05.834Z,5.74
2017-05-23T03:48:35.395Z,6.72
2017-05-23T03:51:02.343Z,6.34
2017-05-23T03:53:29.260Z,6.50
2017-05-23T03:55:56.214Z,6.56
2017-05-23T03:58:25.490Z,6.40
2017-05-23T04:00:53.612Z,6.30
2017-05-23T04:03:20.582Z,6.46
2017-05-23T04:05:47.536Z,7.68
2017-05-23T04:08:14.459Z,6.16
2017-05-23T04:10:41.407Z,7.40
2017-05-23T04:13:08.404Z,7.20
2017-05-23T04:15:35.334Z,6.96
2017-05-23T04:18:05.534Z,6.70
2017-05-23T04:20:34.474Z,6.58
2017-05-23T04:23:01.430Z,6.62
2017-05-23T04:25:28.382Z,6.52
2017-05-23T04:27:57.919Z,6.38
2017-05-23T04:30:24.873Z,6.50
2017-05-23T04:32:52.670Z,7.16
2017-05-23T04:35:19.634Z,6.56
2017-05-23T04:37:46.912Z,6.90
2017-05-23T04:40:13.871Z,6.98
2017-05-23T04:42:42.594Z,7.46
2017-05-23T04:45:09.525Z,7.96
2017-05-23T04:47:37.221Z,6.98
2017-05-23T04:50:04.171Z,7.70
2017-05-23T04:52:31.115Z,6.90
2017-05-23T04:54:58.047Z,6.58
2017-05-23T04:57:24.957Z,6.84
2017-05-23T04:59:51.912Z,7.08
2017-05-23T05:02:18.854Z,6.90
2017-05-23T05:04:46.958Z,7.06
2017-05-23T05:07:13.896Z,6.62
2017-05-23T05:09:41.928Z,6.58
2017-05-23T05:12:08.821Z,7.32
2017-05-23T05:14:35.822Z,6.58
2017-05-23T05:17:02.803Z,6.10
2017-05-23T05:19:30.767Z,6.22
2017-05-23T05:21:57.678Z,6.78
2017-05-23T05:24:27.467Z,7.60
2017-05-23T05:26:55.896Z,7.86
2017-05-23T05:29:25.992Z,6.68
2017-05-23T05:31:53.466Z,6.16
2017-05-23T05:34:22.539Z,7.12
2017-05-23T05:36:49.573Z,6.54
2017-05-23T05:39:16.890Z,6.46
2017-05-23T05:41:46.054Z,5.96
2017-05-23T05:44:15.311Z,6.54
2017-05-23T05:46:42.658Z,6.92
2017-05-23T05:49:11.172Z,6.72
2017-05-23T05:51:40.494Z,6.54
2017-05-23T05:54:08.008Z,7.20
2017-05-23T05:56:35.381Z,6.98
2017-05-23T05:59:04.078Z,6.56
2017-05-23T06:01:30.987Z,7.26
2017-05-23T06:03:57.995Z,7.30
2017-05-23T06:06:27.866Z,7.54
2017-05-23T06:08:54.812Z,6.68
2017-05-23T06:11:21.781Z,7.44
2017-05-23T06:13:56.807Z,7.40
2017-05-23T06:16:24.030Z,8.12
2017-05-23T06:18:50.960Z,7.32
2017-05-23T06:21:17.906Z,7.84
2017-05-23T06:23:48.343Z,6.84
2017-05-23T06:36:00.287Z,7.82
2017-05-23T06:38:28.848Z,7.62
2017-05-23T06:40:55.040Z,8.38
2017-05-23T06:43:21.267Z,7.30
2017-05-23T06:45:50.037Z,8.22
2017-05-23T06:48:17.721Z,7.34
2017-05-23T06:50:44.743Z,8.38
2017-05-23T06:53:11.633Z,8.00
2017-05-23T06:55:40.142Z,7.82
2017-05-23T06:58:07.532Z,8.04
2017-05-23T07:00:34.442Z,8.60
2017-05-23T07:03:00.639Z,9.00
2017-05-23T07:05:27.611Z,8.78
2017-05-23T07:07:56.348Z,6.26
2017-05-23T07:10:23.288Z,7.92
2017-05-23T07:12:51.310Z,8.64
2017-05-23T07:15:19.457Z,8.66
2017-05-23T07:17:47.018Z,8.90
2017-05-23T07:20:13.958Z,8.38
2017-05-23T07:22:42.349Z,9.32
2017-05-23T07:25:09.296Z,9.26
2017-05-23T07:27:36.323Z,8.04
2017-05-23T07:30:04.203Z,9.56
2017-05-23T07:32:31.195Z,9.62
2017-05-23T07:34:59.061Z,6.40
2017-05-23T07:37:26.591Z,6.80
2017-05-23T07:39:53.807Z,8.40
2017-05-23T07:42:20.819Z,7.80
2017-05-23T07:44:48.195Z,6.52
2017-05-23T07:47:16.507Z,7.28
2017-05-23T07:49:43.483Z,8.48
2017-05-23T07:52:10.451Z,7.74
2017-05-23T07:54:38.487Z,8.54
2017-05-23T07:57:05.402Z,8.10
2017-05-23T07:59:32.899Z,6.98
2017-05-23T08:02:01.398Z,6.48
2017-05-23T08:14:16.204Z,6.12
2017-05-23T08:16:43.261Z,7.34
2017-05-23T08:19:10.236Z,7.32
2017-05-23T08:21:38.107Z,7.56
2017-05-23T08:24:05.024Z,7.70
2017-05-23T08:26:31.944Z,8.12
2017-05-23T08:28:58.882Z,7.36
2017-05-23T08:31:27.489Z,6.90
2017-05-23T08:33:54.423Z,9.26
2017-05-23T08:36:21.375Z,7.80
2017-05-23T08:38:48.299Z,8.06
2017-05-23T08:41:15.188Z,7.90
2017-05-23T08:43:42.407Z,6.22
2017-05-23T08:46:09.343Z,7.62
2017-05-23T08:48:36.233Z,7.16
2017-05-23T08:51:03.188Z,7.10
2017-05-23T08:53:30.107Z,6.30
2017-05-23T08:55:57.063Z,7.08
2017-05-23T08:58:24.013Z,7.42
2017-05-23T09:00:50.955Z,8.50
2017-05-23T09:03:17.902Z,7.92
2017-05-23T09:05:46.683Z,7.66
2017-05-23T09:08:13.670Z,8.66
2017-05-23T09:10:43.654Z,7.54
2017-05-23T09:13:11.354Z,6.52
2017-05-23T09:15:38.303Z,6.66
2017-05-23T09:18:05.370Z,7.28
2017-05-23T09:20:32.295Z,7.20
2017-05-23T09:22:59.276Z,5.64
2017-05-23T09:25:32.407Z,7.68
2017-05-23T09:27:59.455Z,5.88
2017-05-23T09:30:26.368Z,6.34
2017-05-23T09:32:53.354Z,6.06
2017-05-23T09:35:20.309Z,7.40
2017-05-23T09:37:49.760Z,6.42
2017-05-23T09:40:16.667Z,5.96
2017-05-23T09:42:43.587Z,7.86
2017-05-23T09:45:10.488Z,7.22
2017-05-23T09:47:37.447Z,6.48
2017-05-23T09:50:05.172Z,6.42
2017-05-23T09:52:32.088Z,6.40
2017-05-23T09:54:59.022Z,7.44
2017-05-23T09:57:26.407Z,6.80
2017-05-23T09:59:53.331Z,6.48
2017-05-23T10:02:20.312Z,7.40
2017-05-23T10:04:47.194Z,6.68
2017-05-23T10:07:14.275Z,7.34
2017-05-23T10:09:41.216Z,6.82
2017-05-23T10:12:11.157Z,6.10
2017-05-23T10:14:39.128Z,5.38
2017-05-23T10:17:06.060Z,5.00
2017-05-23T10:19:32.989Z,4.72
2017-05-23T10:22:00.212Z,4.78
2017-05-23T10:24:27.176Z,4.78
2017-05-23T10:26:54.133Z,3.98
2017-05-23T10:29:22.084Z,4.48
2017-05-23T10:31:49.075Z,4.22
2017-05-23T10:34:16.287Z,3.56
2017-05-23T10:36:43.249Z,3.66
2017-05-23T10:39:10.140Z,4.00
2017-05-23T10:41:37.061Z,3.54
2017-05-23T10:44:03.992Z,2.96
2017-05-23T10:46:30.891Z,3.96
2017-05-23T10:48:58.418Z,3.44
2017-05-23T10:51:27.095Z,3.90
2017-05-23T10:53:54.880Z,5.58
2017-05-23T10:56:21.840Z,3.68
2017-05-23T10:58:48.796Z,11.68
2017-05-23T11:01:17.431Z,6.54
2017-05-23T11:03:48.568Z,8.36
2017-05-23T11:06:17.832Z,5.10
2017-05-23T11:08:48.085Z,5.50
2017-05-23T11:11:15.020Z,4.30
2017-05-23T11:13:41.984Z,4.26
2017-05-23T11:16:08.926Z,4.32
2017-05-23T11:18:36.880Z,3.76
2017-05-23T11:21:03.832Z,3.80
2017-05-23T11:23:30.795Z,4.18
2017-05-23T11:25:58.536Z,3.42
2017-05-23T11:28:26.363Z,2.98
2017-05-23T11:30:53.973Z,3.40
2017-05-23T11:33:21.972Z,3.20
2017-05-23T11:35:48.882Z,3.36
2017-05-23T11:38:15.766Z,3.20
2017-05-23T11:40:42.692Z,3.20
2017-05-23T11:43:10.572Z,3.42
2017-05-23T11:45:37.539Z,3.78
2017-05-23T11:48:05.349Z,3.50
2017-05-23T11:50:33.497Z,3.64
2017-05-23T11:53:00.555Z,2.82
2017-05-23T11:55:27.456Z,2.08
2017-05-23T11:57:54.635Z,2.62
2017-05-23T12:00:21.546Z,1.94
2017-05-23T12:02:49.764Z,1.86
2017-05-23T12:05:16.736Z,2.02
2017-05-23T12:07:43.645Z,1.66
2017-05-23T12:10:10.595Z,2.22
2017-05-23T12:12:37.554Z,1.88
2017-05-23T12:15:04.487Z,1.70
2017-05-23T12:17:32.416Z,2.50
2017-05-23T12:19:59.329Z,1.74
2017-05-23T12:22:27.018Z,1.82
2017-05-23T12:24:55.438Z,1.64
2017-05-23T12:27:22.371Z,1.70
2017-05-23T12:29:50.151Z,2.06
2017-05-23T12:32:17.391Z,2.60
2017-05-23T12:34:44.317Z,2.02
2017-05-23T12:37:11.271Z,2.08
2017-05-23T12:39:39.165Z,1.32
2017-05-23T12:42:06.085Z,2.00
2017-05-23T12:44:34.222Z,2.00
2017-05-23T12:47:01.146Z,1.60
2017-05-23T12:49:28.487Z,1.78
2017-05-23T12:51:55.432Z,2.30
2017-05-23T12:54:21.948Z,2.08
2017-05-23T12:56:50.325Z,5.82
2017-05-23T12:59:18.095Z,2.64
2017-05-23T13:01:45.055Z,2.18
2017-05-23T13:04:12.960Z,2.48
2017-05-23T13:06:39.844Z,1.94
2017-05-23T13:09:08.193Z,3.08
2017-05-23T13:11:35.737Z,2.08
2017-05-23T13:14:04.035Z,2.22
2017-05-23T13:16:31.950Z,2.48
2017-05-23T13:19:00.032Z,2.04
2017-05-23T13:21:26.929Z,2.80
2017-05-23T13:23:53.898Z,2.80
2017-05-23T13:26:20.870Z,2.24
2017-05-23T13:28:48.725Z,2.28
2017-05-23T13:31:15.675Z,2.12
2017-05-23T13:33:43.143Z,2.48
2017-05-23T13:36:11.052Z,2.12
2017-05-23T13:38:37.948Z,2.24
2017-05-23T13:41:05.690Z,2.54
2017-05-23T13:43:33.256Z,2.32
2017-05-23T13:46:00.251Z,1.92
2017-05-23T13:48:27.218Z,2.40
2017-05-23T13:50:56.324Z,2.20
2017-05-23T13:53:24.063Z,2.26
2017-05-23T13:55:52.853Z,2.26
2017-05-23T13:58:19.777Z,2.58
2017-05-23T14:00:46.712Z,2.52
2017-05-23T14:03:13.636Z,2.50
2017-05-23T14:05:41.575Z,2.28
2017-05-23T14:08:09.121Z,2.30
2017-05-23T14:10:36.982Z,2.16
2017-05-23T14:13:04.619Z,3.00
2017-05-23T14:15:31.677Z,2.18
2017-05-23T14:18:00.878Z,2.56
2017-05-23T14:20:27.831Z,2.60
2017-05-23T14:22:54.901Z,2.92
2017-05-23T14:25:24.682Z,2.34
2017-05-23T14:27:55.381Z,2.08
2017-05-23T14:30:24.888Z,2.68
2017-05-23T14:32:51.913Z,1.98
2017-05-23T14:35:18.876Z,2.10
2017-05-23T14:37:48.893Z,2.10
2017-05-23T14:40:15.796Z,2.20
2017-05-23T14:42:44.320Z,2.18
2017-05-23T14:45:11.247Z,1.92
2017-05-23T14:47:38.172Z,1.86
2017-05-23T14:50:05.095Z,1.78
2017-05-23T14:52:32.980Z,1.88
2017-05-23T14:54:59.924Z,1.94
2017-05-23T14:57:28.352Z,1.90
2017-05-23T14:59:55.271Z,1.80
2017-05-23T15:02:23.082Z,1.70
2017-05-23T15:04:50.749Z,2.04
2017-05-23T15:07:32.574Z,2.06
2017-05-23T15:09:59.527Z,1.82
2017-05-23T15:12:27.558Z,3.30
2017-05-23T15:14:56.590Z,2.50
2017-05-23T15:17:24.716Z,2.46
2017-05-23T15:19:51.670Z,2.40
2017-05-23T15:22:18.620Z,2.36
2017-05-23T15:24:45.600Z,1.96
2017-05-23T15:27:12.541Z,2.02
2017-05-23T15:29:39.527Z,1.80
2017-05-23T15:32:06.463Z,2.80
2017-05-23T15:34:35.432Z,2.62
2017-05-23T15:37:02.379Z,2.60
2017-05-23T15:39:29.305Z,2.44
2017-05-23T15:41:56.276Z,2.28
2017-05-23T15:44:23.243Z,3.10
2017-05-23T15:46:50.202Z,2.06
2017-05-23T15:49:17.137Z,2.16
2017-05-23T15:51:44.059Z,2.30
2017-05-23T15:54:11.021Z,1.90
2017-05-23T15:56:37.982Z,2.28
2017-05-23T15:59:04.913Z,2.46
2017-05-23T16:01:33.839Z,3.10
2017-05-23T16:04:00.800Z,2.78
2017-05-23T16:06:27.715Z,2.12
2017-05-23T16:08:54.641Z,2.48
2017-05-23T16:11:21.576Z,2.50
2017-05-23T16:13:48.497Z,2.98
2017-05-23T16:16:15.434Z,3.66
2017-05-23T16:18:42.344Z,3.24
2017-05-23T16:21:09.294Z,3.12
2017-05-23T16:23:36.263Z,2.66
2017-05-23T16:26:03.262Z,2.44
2017-05-23T16:28:31.155Z,2.54
2017-05-23T16:30:58.155Z,2.42
2017-05-23T16:33:25.963Z,2.24
2017-05-23T16:35:52.908Z,2.30
2017-05-23T16:38:19.824Z,2.50
2017-05-23T16:40:46.716Z,2.22
2017-05-23T16:43:14.774Z,2.44
2017-05-23T16:45:41.713Z,1.98
2017-05-23T16:48:08.753Z,2.84
2017-05-23T16:50:36.015Z,3.40
2017-05-23T16:53:03.839Z,2.82
2017-05-23T16:55:31.256Z,2.44
2017-05-23T16:57:58.213Z,2.32
2017-05-23T17:00:25.183Z,2.32
2017-05-23T17:02:53.617Z,2.12
2017-05-23T17:05:21.294Z,2.66
2017-05-23T17:07:48.981Z,2.68
2017-05-23T17:10:15.952Z,2.50
2017-05-23T17:12:42.899Z,2.62
2017-05-23T17:15:09.855Z,2.20
2017-05-23T17:17:36.824Z,2.20
2017-05-23T17:20:04.108Z,2.36
2017-05-23T17:22:31.024Z,2.64
2017-05-23T17:24:57.984Z,2.48
2017-05-23T17:27:25.006Z,2.22
2017-05-23T17:29:53.021Z,2.32
2017-05-23T17:32:20.951Z,2.74
2017-05-23T17:34:48.192Z,2.58
2017-05-23T17:37:15.150Z,3.20
2017-05-23T17:39:42.081Z,3.10
2017-05-23T17:42:09.002Z,2.86
2017-05-23T17:44:36.875Z,2.84
2017-05-23T17:47:03.792Z,4.80
2017-05-23T17:49:30.717Z,4.34
2017-05-23T17:51:57.671Z,3.62
2017-05-23T17:54:24.588Z,3.56
2017-05-23T17:56:51.562Z,3.70
2017-05-23T17:59:18.524Z,3.80
2017-05-23T18:01:45.539Z,4.32
2017-05-23T18:04:12.476Z,3.50
2017-05-23T18:06:39.432Z,3.10
2017-05-23T18:09:07.752Z,4.28
2017-05-23T18:11:35.705Z,4.00
2017-05-23T18:14:02.696Z,4.42
2017-05-23T18:16:29.659Z,4.56
2017-05-23T18:28:48.029Z,5.28
2017-05-23T18:31:15.044Z,4.40
2017-05-23T18:33:41.977Z,4.54
2017-05-23T18:36:09.232Z,4.36
2017-05-23T18:38:36.174Z,4.36
2017-05-23T18:41:03.161Z,4.48
2017-05-23T18:43:30.139Z,4.74
2017-05-23T18:45:57.078Z,4.42
2017-05-23T18:48:24.030Z,6.60
2017-05-23T18:50:51.695Z,7.30
2017-05-23T18:53:18.649Z,7.26
2017-05-23T18:55:45.623Z,7.60
2017-05-23T18:58:12.841Z,6.60
2017-05-23T19:00:40.152Z,5.80
2017-05-23T19:03:08.807Z,4.76
2017-05-23T19:05:35.751Z,4.44
2017-05-23T19:08:02.706Z,4.82
2017-05-23T19:10:29.788Z,4.76
2017-05-23T19:12:56.750Z,4.54
2017-05-23T19:15:23.965Z,5.26
2017-05-23T19:17:50.963Z,5.00
2017-05-23T19:20:17.971Z,4.58
2017-05-23T19:22:45.791Z,4.70
2017-05-23T19:25:12.729Z,4.18
2017-05-23T19:27:39.642Z,4.66
2017-05-23T19:30:06.579Z,3.88
2017-05-23T19:32:33.496Z,4.64
2017-05-23T19:35:01.325Z,4.54
2017-05-23T19:37:28.267Z,3.90
2017-05-23T19:39:55.951Z,3.62
2017-05-23T19:42:23.905Z,4.06
2017-05-23T19:44:52.776Z,3.88
2017-05-23T19:47:19.711Z,3.42
2017-05-23T19:49:46.719Z,3.72
2017-05-23T19:52:15.152Z,3.34
2017-05-23T19:54:42.251Z,3.70
2017-05-23T19:57:10.113Z,4.00
2017-05-23T19:59:37.375Z,3.30
2017-05-23T20:02:05.921Z,3.70
2017-05-23T20:04:33.553Z,3.04
2017-05-23T20:07:02.932Z,2.96
2017-05-23T20:09:31.303Z,3.46
2017-05-23T20:11:58.376Z,3.18
2017-05-23T20:14:26.320Z,2.90
2017-05-23T20:16:53.262Z,3.08
2017-05-23T20:19:20.259Z,2.24
2017-05-23T20:21:47.605Z,2.86
2017-05-23T20:24:16.441Z,2.12
2017-05-23T20:26:43.408Z,2.24
2017-05-23T20:29:10.420Z,2.04
2017-05-23T20:34:10.868Z,2.46
2017-05-23T20:36:39.422Z,2.08
2017-05-23T20:39:07.202Z,2.16
2017-05-23T20:41:35.293Z,2.04
2017-05-23T20:44:02.273Z,2.24
2017-05-23T20:46:29.239Z,1.80
2017-05-23T20:48:57.167Z,2.02
2017-05-23T20:51:24.123Z,1.88
2017-05-23T20:53:52.098Z,2.06
2017-05-23T20:56:19.738Z,1.52
2017-05-23T20:58:47.833Z,1.52
2017-05-23T21:01:14.753Z,2.20
2017-05-23T21:03:41.689Z,1.80
2017-05-23T21:06:08.672Z,1.56
2017-05-23T21:08:35.609Z,1.70
2017-05-23T21:11:02.524Z,1.40
2017-05-23T21:13:29.493Z,1.70
2017-05-23T21:15:56.421Z,3.90
2017-05-23T21:18:23.351Z,3.34
2017-05-23T21:20:50.347Z,2.58
2017-05-23T21:23:17.287Z,3.06
2017-05-23T21:25:44.239Z,1.80
2017-05-23T21:28:11.233Z,1.44
2017-05-23T21:30:38.190Z,1.60
2017-05-23T21:33:05.129Z,1.40
2017-05-23T21:35:32.073Z,1.62
2017-05-23T21:37:59.004Z,1.34
2017-05-23T21:40:25.949Z,1.12
2017-05-23T21:42:52.841Z,1.12
2017-05-23T21:45:19.816Z,1.22
2017-05-23T21:47:46.754Z,1.80
2017-05-23T21:50:13.667Z,1.20
2017-05-23T21:52:40.630Z,1.14
2017-05-23T21:55:07.546Z,1.78
2017-05-23T21:57:34.495Z,1.36
2017-05-23T22:00:01.669Z,1.10
2017-05-23T22:02:28.610Z,1.52
2017-05-23T22:04:55.577Z,1.02
2017-05-23T22:07:22.160Z,1.38
2017-05-23T22:09:50.291Z,1.04
2017-05-23T22:12:17.370Z,1.24
2017-05-23T22:14:46.767Z,1.42
2017-05-23T22:17:13.674Z,1.14
2017-05-23T22:19:40.722Z,1.36
2017-05-23T22:22:07.731Z,1.40
2017-05-23T22:24:34.667Z,1.56
2017-05-23T22:27:01.973Z,1.48
2017-05-23T22:29:28.887Z,1.28
2017-05-23T22:31:55.870Z,1.72
2017-05-23T22:34:22.795Z,1.24
2017-05-23T22:36:49.727Z,1.34
2017-05-23T22:39:16.650Z,1.30
2017-05-23T22:41:44.467Z,1.28
2017-05-23T22:44:11.403Z,1.60
2017-05-23T22:46:38.307Z,1.66
2017-05-23T22:49:05.871Z,1.06
2017-05-23T22:51:32.814Z,1.42
2017-05-23T22:53:59.786Z,1.10
2017-05-23T22:56:26.761Z,1.44
2017-05-23T22:58:53.713Z,1.38
2017-05-23T23:01:20.728Z,1.18
2017-05-23T23:03:47.652Z,1.10
2017-05-23T23:06:14.606Z,1.22
2017-05-23T23:08:42.240Z,1.62
2017-05-23T23:11:09.191Z,1.00
2017-05-23T23:13:36.229Z,1.00
2017-05-23T23:16:03.167Z,1.30
2017-05-23T23:18:30.185Z,1.20
2017-05-23T23:20:57.136Z,1.18
2017-05-23T23:23:24.062Z,1.10
2017-05-23T23:25:50.969Z,0.90
2017-05-23T23:28:17.882Z,1.30
2017-05-23T23:30:44.849Z,1.20
2017-05-23T23:33:12.788Z,1.06
2017-05-23T23:35:39.702Z,0.80
2017-05-23T23:38:07.478Z,1.12
2017-05-23T23:40:34.403Z,1.08
2017-05-23T23:43:01.339Z,0.92
2017-05-23T23:45:28.304Z,1.00
2017-05-23T23:47:55.197Z,1.12
2017-05-23T23:50:23.100Z,1.20
2017-05-23T23:52:50.979Z,1.22
2017-05-23T23:55:17.883Z,1.14
2017-05-23T23:57:44.838Z,1.12
